Time;durP1;ratioP1;P1;durP2;ratioP2;P2;SDS_P1;SDS_P2;PMS_P1;PMS_P2;Temp;Humidity;BMP_temperature;BMP_pressure;BME280_temperature;BME280_humidity;BME280_pressure;Samples;Min_cycle;Max_cycle;Signal;HPM_P1;HPM_P2
2022/03/21 05:02:57;;;;;;;13.95;10.15;;;-1.30;99.90;;;;;;6034130;23;20406;31
2022/03/21 05:05:26;;;;;;;17.40;10.20;;;-1.30;99.90;;;;;;4911892;29;20969;-77
2022/03/21 05:07:54;;;;;;;13.50;9.70;;;-1.30;99.90;;;;;;4902845;29;20485;-77
2022/03/21 05:10:23;;;;;;;13.00;10.00;;;-1.30;99.90;;;;;;4916267;29;20521;-75
2022/03/21 05:12:51;;;;;;;19.37;11.20;;;-1.30;99.90;;;;;;4917088;29;20439;-77
2022/03/21 05:15:19;;;;;;;15.83;10.97;;;-1.30;99.90;;;;;;4916071;29;20541;-77
2022/03/21 05:17:48;;;;;;;15.37;10.73;;;-1.30;99.90;;;;;;4915976;29;20452;-78
2022/03/21 05:20:18;;;;;;;16.10;10.60;;;-1.30;99.90;;;;;;4915895;29;20568;-78
2022/03/21 05:30:57;;;;;;;14.97;10.50;;;-1.30;99.90;;;;;;4916136;29;20453;-76
2022/03/21 05:31:13;;;;;;;14.63;10.47;;;-1.20;99.90;;;;;;4915861;29;20850;-75
2022/03/21 05:36:28;;;;;;;14.97;11.03;;;-1.10;99.90;;;;;;4916361;29;20433;-78
2022/03/21 05:38:58;;;;;;;12.93;10.10;;;-1.10;99.90;;;;;;4916130;29;20496;-79
2022/03/21 05:41:26;;;;;;;16.23;10.23;;;-1.00;99.90;;;;;;4897783;29;20513;-78
2022/03/21 05:43:55;;;;;;;14.80;10.70;;;-1.00;99.90;;;;;;4898834;29;20557;-77
2022/03/21 05:46:26;;;;;;;13.77;10.07;;;-0.90;99.90;;;;;;4898070;29;20523;-77
2022/03/21 05:49:01;;;;;;;17.33;11.00;;;-0.80;99.90;;;;;;4919224;29;20816;-76
2022/03/21 05:51:33;;;;;;;15.23;10.33;;;-0.70;99.90;;;;;;4917149;29;20498;-76
2022/03/21 05:54:03;;;;;;;15.97;10.57;;;-0.50;99.90;;;;;;4916976;29;20533;-79
2022/03/21 05:56:31;;;;;;;14.43;10.33;;;-0.50;99.90;;;;;;4917389;29;20476;-77
2022/03/21 06:00:20;;;;;;;13.37;9.87;;;-0.30;99.90;;;;;;4918505;29;20494;-75
2022/03/21 06:01:48;;;;;;;18.03;11.20;;;-0.20;99.90;;;;;;4919208;29;20591;-74
2022/03/21 06:04:17;;;;;;;17.47;11.30;;;0.00;99.90;;;;;;4916192;29;20485;-78
2022/03/21 06:06:48;;;;;;;13.20;10.10;;;0.20;99.90;;;;;;4916369;29;20549;-76
2022/03/21 06:09:16;;;;;;;15.03;9.83;;;0.40;99.90;;;;;;4912224;29;20552;-83
2022/03/21 06:11:48;;;;;;;15.57;10.30;;;0.50;99.90;;;;;;4916020;29;20489;-81
2022/03/21 06:14:20;;;;;;;14.33;9.40;;;0.70;99.90;;;;;;4916996;29;20509;-81
2022/03/21 06:16:49;;;;;;;15.27;9.73;;;0.80;99.90;;;;;;4916890;29;20978;-79
2022/03/21 06:19:18;;;;;;;13.63;10.00;;;1.00;99.90;;;;;;4911846;29;20464;-78
2022/03/21 06:21:47;;;;;;;12.53;9.43;;;1.10;99.90;;;;;;4914239;29;20912;-81
2022/03/21 06:24:16;;;;;;;12.37;9.60;;;1.20;99.20;;;;;;4912527;29;20546;-81
2022/03/21 06:26:46;;;;;;;12.00;9.13;;;1.30;98.20;;;;;;4915908;29;20492;-79
2022/03/21 06:29:14;;;;;;;15.07;9.20;;;1.30;97.10;;;;;;4920077;29;20963;-78
2022/03/21 06:31:42;;;;;;;13.50;9.23;;;1.40;96.50;;;;;;4920367;29;20480;-78
2022/03/21 06:34:10;;;;;;;18.23;9.43;;;1.60;96.40;;;;;;4920158;29;20935;-78
2022/03/21 06:36:42;;;;;;;19.43;11.60;;;1.80;95.80;;;;;;4930883;29;20519;-80
2022/03/21 06:39:13;;;;;;;14.23;9.77;;;1.90;95.40;;;;;;4921714;29;20970;-80
2022/03/21 06:41:42;;;;;;;19.73;10.47;;;1.90;94.60;;;;;;4920482;29;20583;-79
2022/03/21 06:44:10;;;;;;;14.53;10.37;;;2.00;94.00;;;;;;4920102;29;20465;-79
2022/03/21 06:46:39;;;;;;;13.77;9.13;;;2.10;94.50;;;;;;4918951;29;20532;-77
2022/03/21 06:49:07;;;;;;;13.98;9.25;;;2.20;94.10;;;;;;4914858;29;20535;-79
2022/03/21 06:51:39;;;;;;;12.57;9.10;;;2.40;93.50;;;;;;4920762;29;20208;-80
2022/03/21 06:54:07;;;;;;;12.27;8.87;;;2.40;92.60;;;;;;4927732;29;20240;-79
2022/03/21 06:56:37;;;;;;;12.83;9.50;;;2.70;92.80;;;;;;4926948;29;20299;-78
2022/03/21 06:59:05;;;;;;;16.33;9.90;;;3.00;91.90;;;;;;4925109;29;20229;-77
2022/03/21 07:01:36;;;;;;;14.00;9.23;;;3.00;91.20;;;;;;4916067;29;20233;-76
2022/03/21 07:04:06;;;;;;;12.00;8.13;;;3.20;91.50;;;;;;4919906;29;20221;-79
2022/03/21 07:06:34;;;;;;;11.70;8.20;;;3.50;89.10;;;;;;4919254;29;20295;-77
2022/03/21 07:09:01;;;;;;;16.83;8.90;;;3.60;88.30;;;;;;4919619;29;20295;-78
2022/03/21 07:11:32;;;;;;;12.07;8.37;;;4.00;87.60;;;;;;4921709;29;20670;-78
2022/03/21 07:14:01;;;;;;;11.83;8.03;;;4.60;84.50;;;;;;4919633;29;20221;-79
2022/03/21 07:16:30;;;;;;;10.53;8.10;;;5.50;82.30;;;;;;4917027;29;20367;-77
2022/03/21 07:18:58;;;;;;;12.40;8.27;;;6.60;78.90;;;;;;4918139;29;20216;-80
2022/03/21 07:21:25;;;;;;;11.00;8.03;;;7.20;75.60;;;;;;4918939;29;20265;-76
2022/03/21 07:23:53;;;;;;;12.10;8.20;;;7.90;72.00;;;;;;4919062;29;20362;-76
2022/03/21 07:26:22;;;;;;;9.07;7.67;;;8.40;70.30;;;;;;4919890;29;20633;-76
2022/03/21 07:28:50;;;;;;;11.60;8.10;;;9.40;67.20;;;;;;4901964;29;20629;-76
2022/03/21 07:31:36;;;;;;;10.23;7.83;;;9.40;64.80;;;;;;4920630;29;20212;-76
2022/03/21 07:34:04;;;;;;;10.57;8.33;;;10.30;63.40;;;;;;4932711;29;20213;-76
2022/03/21 07:36:32;;;;;;;11.50;8.20;;;10.50;61.80;;;;;;4928762;29;20208;-75
2022/03/21 07:39:01;;;;;;;9.83;8.20;;;10.70;62.20;;;;;;4934056;29;20240;-79
2022/03/21 07:41:29;;;;;;;12.00;7.87;;;9.60;63.50;;;;;;4928014;29;20244;-75
2022/03/21 07:43:58;;;;;;;11.90;8.47;;;9.40;65.00;;;;;;4933727;29;20222;-76
2022/03/21 07:49:15;;;;;;;12.97;8.50;;;11.70;61.40;;;;;;4932895;29;20208;-76
2022/03/21 07:51:43;;;;;;;10.30;8.33;;;11.90;59.00;;;;;;4917876;29;20248;-78
2022/03/21 07:54:12;;;;;;;9.20;7.80;;;12.80;57.70;;;;;;4914004;29;20252;-77
2022/03/21 07:56:41;;;;;;;9.00;7.83;;;13.30;56.90;;;;;;4918861;29;20273;-76
2022/03/21 07:59:09;;;;;;;11.00;8.63;;;13.50;56.30;;;;;;4918480;29;20263;-77
2022/03/21 08:01:44;;;;;;;10.90;8.10;;;14.50;53.90;;;;;;4916655;29;20240;-79
2022/03/21 08:04:12;;;;;;;9.80;8.73;;;14.30;54.30;;;;;;4918246;29;20630;-79
2022/03/21 08:06:43;;;;;;;11.30;8.37;;;14.90;53.50;;;;;;4918006;29;20245;-79
2022/03/21 08:09:11;;;;;;;10.67;8.13;;;15.00;52.20;;;;;;4917883;29;20357;-77
2022/03/21 08:11:39;;;;;;;8.97;7.53;;;15.40;52.20;;;;;;4918068;29;20205;-77
2022/03/21 08:14:08;;;;;;;10.48;8.45;;;15.10;51.00;;;;;;4917122;29;20497;-76
2022/03/21 08:16:36;;;;;;;9.43;8.20;;;15.10;50.70;;;;;;4917691;29;20287;-76
2022/03/21 08:19:06;;;;;;;14.47;8.40;;;15.30;50.80;;;;;;4917500;29;20215;-76
2022/03/21 08:21:35;;;;;;;12.27;8.10;;;15.00;50.50;;;;;;4918120;29;20221;-77
2022/03/21 08:24:06;;;;;;;11.47;8.03;;;15.20;51.10;;;;;;4917510;29;20244;-76
2022/03/21 08:26:37;;;;;;;13.70;8.03;;;16.30;49.70;;;;;;4916522;29;20209;-77
2022/03/21 08:29:05;;;;;;;11.27;8.77;;;15.80;50.20;;;;;;4917016;29;20209;-77
2022/03/21 08:31:33;;;;;;;10.90;8.57;;;17.00;48.10;;;;;;4917571;29;20213;-77
2022/03/21 08:34:03;;;;;;;9.30;8.18;;;17.10;48.10;;;;;;4917552;29;20257;-78
2022/03/21 08:36:32;;;;;;;11.82;7.95;;;16.40;46.60;;;;;;4920835;29;20862;-78
2022/03/21 08:39:01;;;;;;;12.13;8.73;;;16.30;48.50;;;;;;4925988;29;20209;-77
2022/03/21 08:41:31;;;;;;;9.53;8.13;;;15.60;49.70;;;;;;4925426;29;20221;-77
2022/03/21 08:44:00;;;;;;;11.00;8.10;;;16.90;48.40;;;;;;4923143;29;20205;-76
2022/03/21 08:46:29;;;;;;;9.80;8.63;;;15.90;47.90;;;;;;4918263;29;20217;-76
2022/03/21 08:51:58;;;;;;;15.50;8.37;;;16.00;47.90;;;;;;4913527;29;20209;-81
2022/03/21 08:54:27;;;;;;;8.50;7.60;;;16.30;48.80;;;;;;4922804;29;20208;-75
2022/03/21 08:56:56;;;;;;;11.50;8.33;;;16.30;49.00;;;;;;4924775;29;20641;-75
2022/03/21 08:59:25;;;;;;;9.85;8.05;;;16.70;49.10;;;;;;4916222;29;20877;-76
2022/03/21 09:01:54;;;;;;;9.27;7.90;;;17.60;48.00;;;;;;4913591;29;20212;-75
2022/03/21 09:04:25;;;;;;;11.13;9.32;;;18.20;49.00;;;;;;4917311;29;20220;-76
2022/03/21 09:06:54;;;;;;;11.40;8.10;;;18.10;45.80;;;;;;4917393;29;20482;-77
2022/03/21 09:09:22;;;;;;;9.20;8.25;;;18.60;46.80;;;;;;4917597;29;20209;-77
2022/03/21 09:11:57;;;;;;;9.88;7.63;;;18.00;46.50;;;;;;4917901;29;20208;-77
2022/03/21 09:14:36;;;;;;;11.20;8.20;;;18.00;46.10;;;;;;5124582;27;20650;-77
2022/03/21 09:17:04;;;;;;;8.95;7.80;;;18.00;46.10;;;;;;5120815;28;20201;-76
2022/03/21 09:19:32;;;;;;;10.38;7.78;;;18.60;44.30;;;;;;5128419;28;20258;-76
2022/03/21 09:22:01;;;;;;;9.50;7.75;;;18.10;44.90;;;;;;5113817;28;20202;-78
2022/03/21 09:24:29;;;;;;;9.00;8.10;;;18.00;45.80;;;;;;5116183;28;20193;-76
2022/03/21 09:26:57;;;;;;;9.85;8.20;;;17.70;45.40;;;;;;5110692;28;20220;-75
2022/03/21 09:29:26;;;;;;;9.52;7.93;;;18.40;44.30;;;;;;5117822;28;20209;-75
2022/03/21 09:31:55;;;;;;;11.30;8.25;;;17.30;45.20;;;;;;5130325;27;20214;-75
2022/03/21 09:34:24;;;;;;;9.63;8.10;;;17.30;46.50;;;;;;5126629;28;20642;-76
2022/03/21 09:36:52;;;;;;;9.00;8.10;;;18.00;44.50;;;;;;5109921;28;20202;-79
2022/03/21 09:39:21;;;;;;;9.27;7.82;;;18.60;46.10;;;;;;5118069;28;20233;-79
2022/03/21 09:41:49;;;;;;;10.18;8.40;;;18.70;44.10;;;;;;5110311;28;20263;-75
2022/03/21 09:44:17;;;;;;;10.63;7.93;;;17.10;44.70;;;;;;5110233;28;20230;-74
2022/03/21 09:46:49;;;;;;;9.40;8.40;;;17.50;47.70;;;;;;5115958;28;20203;-74
2022/03/21 09:49:24;;;;;;;11.47;8.50;;;17.10;46.10;;;;;;5118226;27;20276;-73
2022/03/21 09:51:55;;;;;;;10.23;8.47;;;18.60;44.00;;;;;;5111156;28;20230;-73
2022/03/21 09:54:28;;;;;;;10.20;8.70;;;18.00;43.90;;;;;;5110092;28;20222;-75
2022/03/21 09:56:56;;;;;;;13.07;8.60;;;18.10;43.80;;;;;;5114738;28;20309;-77
2022/03/21 09:59:29;;;;;;;10.43;8.67;;;17.80;45.20;;;;;;5110608;28;20743;-74
2022/03/21 10:01:58;;;;;;;9.53;8.57;;;17.70;46.40;;;;;;5130144;28;20215;-76
2022/03/21 10:04:27;;;;;;;10.97;9.20;;;18.80;44.70;;;;;;5126569;28;20201;-77
2022/03/21 10:07:00;;;;;;;9.30;8.50;;;18.20;42.50;;;;;;5110044;28;20245;-78
2022/03/21 10:09:28;;;;;;;10.43;8.97;;;17.80;43.80;;;;;;5116251;28;20210;-76
2022/03/21 10:11:58;;;;;;;9.25;8.35;;;19.10;45.60;;;;;;5110018;28;20264;-75
2022/03/21 10:14:32;;;;;;;10.90;8.80;;;19.80;44.10;;;;;;5110423;28;20217;-76
2022/03/21 10:17:05;;;;;;;11.00;8.80;;;20.20;43.60;;;;;;5114186;28;20476;-75
2022/03/21 10:19:46;;;;;;;9.98;8.98;;;19.90;41.10;;;;;;5116539;27;20605;-75
2022/03/21 10:22:16;;;;;;;10.07;8.85;;;19.20;41.70;;;;;;5093333;28;20195;-74
2022/03/21 10:24:45;;;;;;;10.07;8.23;;;19.10;42.10;;;;;;5100349;28;20299;-77
2022/03/21 10:27:31;;;;;;;9.98;8.98;;;19.90;43.40;;;;;;5094318;28;20286;-76
2022/03/21 10:30:08;;;;;;;10.85;8.70;;;19.70;42.90;;;;;;5095173;28;20207;-76
2022/03/21 10:32:39;;;;;;;9.57;8.48;;;19.80;42.70;;;;;;5098867;28;20237;-76
2022/03/21 10:35:13;;;;;;;9.52;8.60;;;18.80;42.50;;;;;;5082172;28;20285;-74
2022/03/21 10:37:52;;;;;;;9.88;8.88;;;19.60;42.40;;;;;;5087486;28;20630;-76
2022/03/21 10:40:27;;;;;;;11.55;8.63;;;20.40;42.60;;;;;;5095201;28;20350;-77
2022/03/21 10:42:58;;;;;;;12.18;10.10;;;20.30;41.10;;;;;;5096419;28;20256;-75
2022/03/21 10:45:39;;;;;;;10.73;9.30;;;20.00;40.30;;;;;;5090625;28;20195;-74
2022/03/21 10:48:13;;;;;;;9.52;8.52;;;19.50;42.90;;;;;;5104018;28;20199;-74
2022/03/21 10:50:50;;;;;;;10.57;9.48;;;19.30;43.40;;;;;;5103843;28;20210;-74
2022/03/21 10:53:21;;;;;;;10.30;8.80;;;19.70;42.60;;;;;;5096324;28;20216;-75
2022/03/21 10:55:59;;;;;;;10.68;9.00;;;20.60;43.30;;;;;;5095895;28;20206;-75
2022/03/21 10:58:34;;;;;;;9.75;8.75;;;20.40;41.50;;;;;;5092728;28;20608;-75
2022/03/21 11:01:20;;;;;;;10.00;8.90;;;20.50;41.00;;;;;;5106615;28;20240;-75
2022/03/21 11:03:50;;;;;;;9.85;8.70;;;20.00;43.50;;;;;;5081658;28;20211;-77
2022/03/21 11:06:21;;;;;;;10.70;9.27;;;19.50;42.80;;;;;;5103200;28;20702;-73
2022/03/21 11:08:52;;;;;;;10.20;9.20;;;20.20;44.60;;;;;;5112198;28;20650;-75
2022/03/21 11:11:23;;;;;;;10.25;9.25;;;21.00;42.10;;;;;;5094726;28;20566;-75
2022/03/21 11:13:53;;;;;;;11.15;9.38;;;20.50;42.30;;;;;;5093121;28;20690;-77
2022/03/21 11:16:22;;;;;;;10.87;9.13;;;19.70;41.90;;;;;;5094737;28;20203;-74
2022/03/21 11:18:52;;;;;;;11.90;8.63;;;19.50;43.30;;;;;;5094989;28;20212;-75
2022/03/21 11:21:21;;;;;;;10.20;9.20;;;19.70;44.60;;;;;;5094597;28;20231;-77
2022/03/21 11:23:51;;;;;;;10.63;9.63;;;19.60;43.10;;;;;;5091285;28;20207;-77
2022/03/21 11:26:28;;;;;;;10.87;9.20;;;19.20;43.70;;;;;;5094143;28;20218;-75
2022/03/21 11:29:15;;;;;;;10.80;9.70;;;19.20;43.20;;;;;;5094722;28;20203;-74
2022/03/21 11:32:13;;;;;;;10.13;9.17;;;19.30;41.20;;;;;;5088744;28;20195;-74
2022/03/21 11:34:49;;;;;;;11.37;10.23;;;19.50;42.80;;;;;;5097693;28;20230;-73
2022/03/21 11:37:27;;;;;;;11.47;9.87;;;19.00;43.80;;;;;;5098784;28;20255;-76
2022/03/21 11:40:30;;;;;;;10.70;9.60;;;19.30;43.20;;;;;;5097956;28;20217;-74
2022/03/21 11:43:26;;;;;;;11.37;9.63;;;19.50;43.80;;;;;;5034904;28;20225;-78
2022/03/21 11:45:57;;;;;;;11.33;10.13;;;19.60;42.30;;;;;;5063971;28;20664;-76
2022/03/21 11:48:38;;;;;;;10.87;9.67;;;18.90;43.40;;;;;;5095658;28;20236;-73
2022/03/21 11:51:26;;;;;;;15.33;10.43;;;18.70;44.70;;;;;;5105555;28;20202;-75
2022/03/21 11:53:57;;;;;;;12.03;10.13;;;18.00;43.70;;;;;;5087906;28;20297;-74
2022/03/21 11:57:11;;;;;;;10.97;9.43;;;17.50;45.70;;;;;;5093332;28;20239;-75
2022/03/21 11:59:53;;;;;;;11.47;9.00;;;17.70;45.70;;;;;;5093022;28;20248;-74
2022/03/21 12:03:00;;;;;;;11.30;9.47;;;18.30;46.10;;;;;;5089554;28;20191;-74
2022/03/21 12:05:51;;;;;;;11.10;10.00;;;18.60;46.20;;;;;;5096044;28;20203;-74
2022/03/21 12:08:52;;;;;;;12.03;10.10;;;18.20;43.80;;;;;;5098109;28;20309;-74
2022/03/21 12:12:05;;;;;;;11.53;10.33;;;18.30;44.50;;;;;;5097539;28;20269;-74
2022/03/21 12:14:40;;;;;;;11.87;10.17;;;17.00;44.90;;;;;;5099608;28;20218;-74
2022/03/21 12:17:41;;;;;;;11.17;9.70;;;16.90;45.50;;;;;;5102640;28;20194;-74
2022/03/21 12:20:12;;;;;;;12.60;10.83;;;17.10;45.60;;;;;;5104939;28;20229;-74
2022/03/21 12:23:18;;;;;;;13.03;10.07;;;16.60;45.40;;;;;;5107514;28;20278;-74
2022/03/21 12:25:48;;;;;;;12.03;10.00;;;16.50;48.50;;;;;;5107214;28;20195;-73
2022/03/21 12:28:22;;;;;;;11.80;10.10;;;16.70;46.70;;;;;;5103850;28;20198;-73
2022/03/21 12:30:52;;;;;;;11.87;9.70;;;17.00;48.10;;;;;;5103178;28;20574;-74
2022/03/21 12:33:29;;;;;;;12.97;9.50;;;17.20;47.90;;;;;;5105261;28;20198;-76
2022/03/21 12:36:05;;;;;;;13.00;9.80;;;17.20;46.60;;;;;;5107459;28;20211;-75
2022/03/21 12:38:39;;;;;;;12.53;10.13;;;17.40;48.20;;;;;;5090690;28;20203;-74
2022/03/21 12:41:10;;;;;;;15.40;10.07;;;17.20;45.90;;;;;;5095254;28;20260;-77
2022/03/21 12:43:55;;;;;;;11.27;9.87;;;16.80;47.10;;;;;;5093673;28;20191;-75
2022/03/21 12:46:26;;;;;;;11.43;9.73;;;17.40;47.50;;;;;;5092974;28;20211;-76
2022/03/21 12:48:58;;;;;;;13.73;9.83;;;17.60;48.30;;;;;;5078586;28;20218;-75
2022/03/21 12:51:33;;;;;;;13.10;9.83;;;17.60;47.30;;;;;;5083380;28;20213;-73
2022/03/21 12:54:24;;;;;;;12.87;10.50;;;17.70;48.00;;;;;;5092755;28;20253;-73
2022/03/21 12:57:04;;;;;;;44.57;12.10;;;17.00;46.30;;;;;;5093756;28;20191;-73
2022/03/21 12:59:32;;;;;;;14.77;10.00;;;17.10;46.60;;;;;;5090112;28;20244;-74
2022/03/21 13:02:01;;;;;;;14.50;10.03;;;17.10;48.80;;;;;;5096555;28;20211;-76
2022/03/21 13:13:00;;;;;;;15.23;11.10;;;16.10;47.00;;;;;;5081875;28;20284;-74
2022/03/21 13:15:30;;;;;;;13.87;10.37;;;15.90;46.90;;;;;;5096036;28;20226;-75
2022/03/21 13:18:01;;;;;;;10.97;9.60;;;15.70;47.00;;;;;;5096030;28;20735;-76
2022/03/21 13:20:33;;;;;;;12.47;9.13;;;15.60;45.70;;;;;;5096293;28;20660;-73
2022/03/21 13:23:04;;;;;;;10.87;9.63;;;15.60;46.10;;;;;;5098137;28;20214;-73
2022/03/21 13:25:34;;;;;;;12.50;10.57;;;15.20;47.50;;;;;;5097663;28;20206;-74
2022/03/21 13:28:14;;;;;;;13.17;10.20;;;14.80;47.40;;;;;;5098117;28;20219;-75
2022/03/21 13:30:59;;;;;;;17.03;10.40;;;14.80;48.20;;;;;;5100357;28;20636;-77
2022/03/21 13:33:30;;;;;;;12.07;10.17;;;14.90;48.60;;;;;;5100146;28;20257;-74
2022/03/21 13:36:00;;;;;;;12.90;9.33;;;15.00;47.70;;;;;;5107282;28;20238;-76
2022/03/21 13:38:30;;;;;;;12.77;9.47;;;15.10;45.50;;;;;;5112025;28;20195;-77
2022/03/21 13:40:59;;;;;;;11.17;8.63;;;15.20;44.30;;;;;;5110142;28;20203;-76
2022/03/21 13:43:29;;;;;;;10.70;8.67;;;15.20;44.10;;;;;;5110976;28;20207;-75
2022/03/21 13:45:58;;;;;;;10.80;8.13;;;15.00;43.00;;;;;;5106875;28;20738;-74
2022/03/21 13:48:44;;;;;;;10.87;8.87;;;15.10;43.30;;;;;;5110506;28;20241;-79
2022/03/21 13:51:20;;;;;;;10.80;9.70;;;15.20;44.30;;;;;;5102566;28;20187;-78
2022/03/21 13:54:10;;;;;;;10.53;9.00;;;15.30;45.50;;;;;;5093381;28;20242;-75
2022/03/21 13:56:38;;;;;;;10.57;9.10;;;15.50;45.70;;;;;;5093726;28;20211;-75
2022/03/21 13:59:11;;;;;;;11.77;9.13;;;15.70;45.70;;;;;;5094540;28;20223;-74
2022/03/21 14:01:42;;;;;;;11.17;9.20;;;15.50;46.10;;;;;;5092517;28;20335;-73
2022/03/21 14:04:24;;;;;;;13.32;9.77;;;15.80;47.10;;;;;;5096803;28;20442;-74
2022/03/21 14:07:01;;;;;;;11.77;9.30;;;15.90;46.20;;;;;;5100729;28;20225;-74
2022/03/21 14:09:29;;;;;;;11.03;9.33;;;15.80;45.80;;;;;;5102497;28;20202;-74
2022/03/21 14:12:10;;;;;;;11.00;9.33;;;15.80;45.70;;;;;;5106589;28;20215;-74
2022/03/21 14:14:39;;;;;;;12.77;10.47;;;15.60;46.10;;;;;;5113273;28;20583;-74
2022/03/21 14:17:09;;;;;;;12.30;10.33;;;15.60;47.20;;;;;;5111984;28;20199;-75
2022/03/21 14:19:41;;;;;;;12.70;10.87;;;15.50;47.60;;;;;;5112267;28;20215;-76
2022/03/21 14:22:09;;;;;;;14.53;10.97;;;15.30;46.70;;;;;;5111858;28;20282;-75
2022/03/21 14:24:37;;;;;;;13.60;10.50;;;15.10;47.20;;;;;;5113780;28;20242;-74
2022/03/21 14:27:06;;;;;;;13.73;10.47;;;15.20;48.30;;;;;;5110332;28;20199;-75
2022/03/21 14:29:34;;;;;;;13.13;9.93;;;15.10;47.30;;;;;;5112815;28;20213;-74
2022/03/21 14:32:03;;;;;;;12.53;10.50;;;14.90;47.50;;;;;;5107549;28;20211;-74
2022/03/21 14:34:31;;;;;;;13.03;10.73;;;14.90;47.80;;;;;;5110044;28;20261;-74
2022/03/21 14:37:01;;;;;;;14.37;10.77;;;14.80;48.50;;;;;;5111748;28;20218;-76
2022/03/21 14:39:30;;;;;;;12.77;10.40;;;14.60;48.40;;;;;;5109737;28;20217;-75
2022/03/21 14:41:58;;;;;;;12.03;10.07;;;14.70;49.60;;;;;;5099297;28;20207;-75
2022/03/21 14:44:27;;;;;;;14.30;11.07;;;15.00;49.10;;;;;;5112949;28;20215;-76
2022/03/21 14:46:58;;;;;;;12.67;10.80;;;14.80;48.50;;;;;;5107863;28;20207;-75
2022/03/21 14:49:26;;;;;;;15.63;12.07;;;14.90;49.90;;;;;;5109437;28;20229;-74
2022/03/21 14:51:55;;;;;;;14.50;11.67;;;14.80;50.00;;;;;;5118685;28;20206;-74
2022/03/21 14:54:27;;;;;;;15.40;11.33;;;14.60;50.00;;;;;;5112750;28;20214;-74
2022/03/21 14:56:56;;;;;;;14.20;11.70;;;14.80;50.20;;;;;;5126422;28;20215;-76
2022/03/21 14:59:24;;;;;;;13.27;10.77;;;14.90;49.90;;;;;;5114051;28;20222;-75
2022/03/21 15:01:54;;;;;;;16.57;12.00;;;14.90;49.80;;;;;;5096245;28;20600;-73
2022/03/21 15:04:23;;;;;;;14.80;10.70;;;14.90;50.10;;;;;;5111108;28;20217;-75
2022/03/21 15:06:53;;;;;;;12.63;10.63;;;15.00;50.40;;;;;;5111667;28;20203;-73
2022/03/21 15:09:22;;;;;;;13.07;11.07;;;15.10;50.00;;;;;;5128020;28;20290;-76
2022/03/21 15:11:51;;;;;;;16.07;11.30;;;15.00;49.20;;;;;;5110812;28;20229;-76
2022/03/21 15:14:19;;;;;;;13.43;11.33;;;15.10;49.80;;;;;;5107398;28;20215;-73
2022/03/21 15:16:48;;;;;;;16.07;11.97;;;14.90;49.50;;;;;;5110067;28;20233;-76
2022/03/21 15:19:37;;;;;;;12.67;11.33;;;15.00;50.10;;;;;;5109227;28;20230;-74
2022/03/21 15:22:05;;;;;;;14.47;11.77;;;15.00;50.40;;;;;;5103146;28;20279;-75
2022/03/21 15:24:36;;;;;;;16.67;11.80;;;14.80;49.70;;;;;;5115178;28;20199;-74
2022/03/21 15:27:07;;;;;;;14.10;10.97;;;14.70;50.40;;;;;;5112239;28;20210;-75
2022/03/21 15:29:35;;;;;;;16.17;11.13;;;14.80;50.10;;;;;;5097316;28;20212;-74
2022/03/21 15:32:04;;;;;;;12.37;11.07;;;14.90;50.50;;;;;;5099830;28;20242;-76
2022/03/21 15:34:33;;;;;;;14.00;11.82;;;14.90;50.00;;;;;;5107327;28;20457;-74
2022/03/21 15:42:35;;;;;;;13.63;11.03;;;14.30;50.70;;;;;;5106440;28;20191;-75
2022/03/21 15:45:04;;;;;;;12.47;10.73;;;14.20;51.90;;;;;;5095555;28;20230;-75
2022/03/21 15:47:32;;;;;;;12.73;10.83;;;14.20;50.30;;;;;;5096093;28;20250;-77
2022/03/21 15:50:02;;;;;;;13.13;11.73;;;14.20;49.80;;;;;;5095757;28;20817;-76
2022/03/21 15:52:32;;;;;;;15.10;11.30;;;14.10;50.50;;;;;;5105539;28;20806;-74
2022/03/21 15:55:00;;;;;;;12.40;11.10;;;14.20;52.00;;;;;;5095214;28;20199;-76
2022/03/21 15:57:29;;;;;;;14.10;11.17;;;14.00;50.60;;;;;;5094338;28;20227;-77
2022/03/21 15:59:59;;;;;;;16.97;11.77;;;14.00;52.00;;;;;;5080270;28;20243;-77
2022/03/21 16:02:53;;;;;;;13.87;11.80;;;14.00;51.10;;;;;;5074528;28;20337;-77
2022/03/21 16:05:22;;;;;;;16.73;11.57;;;13.90;51.70;;;;;;5074521;28;20690;-75
2022/03/21 16:07:51;;;;;;;13.53;11.20;;;13.80;52.40;;;;;;5075645;28;20252;-74
2022/03/21 16:10:20;;;;;;;16.83;12.10;;;13.80;52.50;;;;;;5085875;28;20225;-74
2022/03/21 16:12:49;;;;;;;18.83;12.30;;;13.60;52.90;;;;;;5104364;28;20210;-76
2022/03/21 16:15:19;;;;;;;14.37;11.80;;;13.60;52.90;;;;;;5114768;28;20207;-74
2022/03/21 16:17:49;;;;;;;22.70;12.17;;;13.50;53.30;;;;;;5101152;28;20226;-78
2022/03/21 16:20:18;;;;;;;17.57;11.93;;;13.40;53.40;;;;;;5094712;28;20261;-76
2022/03/21 16:22:47;;;;;;;18.77;14.47;;;13.40;54.00;;;;;;5093987;28;20210;-76
2022/03/21 16:25:17;;;;;;;19.57;16.03;;;13.30;54.20;;;;;;5094345;28;20309;-75
2022/03/21 16:27:46;;;;;;;17.13;11.90;;;13.20;54.40;;;;;;5093217;28;20207;-74
2022/03/21 16:30:17;;;;;;;14.47;11.47;;;13.10;54.30;;;;;;5094696;28;20578;-78
2022/03/21 16:32:46;;;;;;;14.00;10.90;;;13.10;54.50;;;;;;5095406;28;20230;-76
2022/03/21 16:35:15;;;;;;;14.87;10.83;;;13.00;54.70;;;;;;5097201;28;20226;-72
2022/03/21 16:37:45;;;;;;;15.20;10.83;;;12.90;54.90;;;;;;5096015;28;20222;-76
2022/03/21 16:40:13;;;;;;;13.30;10.53;;;12.80;54.50;;;;;;5093953;28;20213;-75
2022/03/21 16:42:41;;;;;;;17.47;11.37;;;12.80;54.90;;;;;;5085158;28;20563;-74
2022/03/21 16:45:10;;;;;;;15.77;11.27;;;12.70;54.60;;;;;;5093811;28;20211;-73
2022/03/21 16:47:39;;;;;;;14.67;11.00;;;12.60;54.90;;;;;;5095487;28;20234;-75
2022/03/21 16:50:12;;;;;;;14.03;10.57;;;12.50;55.70;;;;;;5094236;28;20227;-77
2022/03/21 16:52:45;;;;;;;14.87;10.37;;;12.40;55.60;;;;;;5091960;28;20242;-76
2022/03/21 16:55:14;;;;;;;13.93;10.87;;;12.30;56.20;;;;;;5091392;28;20213;-77
2022/03/21 16:57:42;;;;;;;15.60;10.30;;;12.20;56.10;;;;;;5093713;28;20218;-77
2022/03/21 17:00:12;;;;;;;12.97;10.33;;;12.10;56.30;;;;;;5092781;28;20298;-74
2022/03/21 17:02:41;;;;;;;13.10;10.70;;;12.00;56.60;;;;;;5093147;28;20563;-73
2022/03/21 17:05:15;;;;;;;14.40;10.63;;;11.90;56.60;;;;;;5093389;28;20222;-76
2022/03/21 17:07:45;;;;;;;15.10;10.43;;;11.80;56.70;;;;;;5094913;28;20225;-75
2022/03/21 17:10:14;;;;;;;13.70;9.90;;;11.70;56.90;;;;;;5085465;28;20223;-75
2022/03/21 17:12:43;;;;;;;14.70;10.23;;;11.60;57.10;;;;;;5072758;28;20207;-75
2022/03/21 17:15:11;;;;;;;16.77;10.60;;;11.50;56.90;;;;;;5072296;28;20206;-75
2022/03/21 17:17:39;;;;;;;14.00;9.70;;;11.40;57.20;;;;;;5083201;28;20460;-75
2022/03/21 17:23:08;;;;;;;15.93;10.43;;;11.20;57.20;;;;;;5093325;28;20203;-75
2022/03/21 17:25:36;;;;;;;14.10;10.57;;;11.10;57.40;;;;;;5094529;28;20672;-74
2022/03/21 17:28:05;;;;;;;13.90;11.20;;;11.00;57.40;;;;;;5099460;28;20214;-75
2022/03/21 17:30:38;;;;;;;13.77;10.50;;;10.80;57.90;;;;;;5114688;28;20711;-74
2022/03/21 17:33:07;;;;;;;14.77;10.50;;;10.70;58.20;;;;;;5115867;28;20210;-74
2022/03/21 17:35:36;;;;;;;15.53;10.67;;;10.60;58.30;;;;;;5105774;28;20207;-75
2022/03/21 17:38:06;;;;;;;17.83;10.60;;;10.40;58.50;;;;;;5107243;28;20203;-75
2022/03/21 17:40:35;;;;;;;14.73;9.67;;;10.20;59.10;;;;;;5107223;28;20222;-76
2022/03/21 17:43:04;;;;;;;12.90;9.70;;;10.10;59.70;;;;;;5100944;28;20281;-76
2022/03/21 17:45:36;;;;;;;12.83;10.13;;;10.00;59.50;;;;;;5098870;28;20641;-75
2022/03/21 17:48:05;;;;;;;17.37;12.13;;;9.80;60.80;;;;;;5088952;28;20261;-75
2022/03/21 17:50:34;;;;;;;18.20;12.50;;;9.80;61.40;;;;;;5101325;28;20690;-76
2022/03/21 17:53:26;;;;;;;15.43;11.70;;;9.70;61.80;;;;;;5106196;28;20217;-79
2022/03/21 17:55:56;;;;;;;21.33;11.27;;;9.60;62.40;;;;;;5086968;28;20230;-76
2022/03/21 17:58:25;;;;;;;18.77;12.60;;;9.50;63.50;;;;;;5088364;28;20207;-77
2022/03/21 18:00:54;;;;;;;21.07;11.60;;;9.30;63.50;;;;;;5111197;28;20207;-76
2022/03/21 18:03:22;;;;;;;14.37;10.93;;;9.20;64.20;;;;;;5098946;28;20612;-74
2022/03/21 18:05:53;;;;;;;15.03;10.40;;;9.10;64.00;;;;;;5101983;28;20215;-74
2022/03/21 18:08:23;;;;;;;16.67;11.07;;;9.00;64.00;;;;;;5104391;28;20349;-78
2022/03/21 18:10:56;;;;;;;13.03;10.80;;;9.00;64.40;;;;;;5098914;28;20235;-74
2022/03/21 18:13:25;;;;;;;17.07;10.63;;;8.90;63.90;;;;;;5098830;28;20214;-75
2022/03/21 18:15:54;;;;;;;14.23;10.27;;;8.90;63.40;;;;;;5098383;28;20228;-75
2022/03/21 18:18:24;;;;;;;13.60;9.97;;;8.90;63.10;;;;;;5095683;28;20203;-74
2022/03/21 18:20:53;;;;;;;14.13;9.53;;;8.90;63.30;;;;;;5096761;28;20211;-75
2022/03/21 18:23:23;;;;;;;12.93;9.63;;;8.90;61.30;;;;;;5084180;28;20277;-75
2022/03/21 18:25:52;;;;;;;16.07;10.47;;;9.00;61.30;;;;;;5097302;28;20276;-76
2022/03/21 18:28:21;;;;;;;14.33;10.63;;;8.90;60.80;;;;;;5104871;28;20263;-75
2022/03/21 18:30:51;;;;;;;14.37;10.63;;;8.90;60.20;;;;;;5084423;28;20662;-75
2022/03/21 18:33:19;;;;;;;17.13;10.33;;;8.90;60.10;;;;;;5099392;28;20209;-75